createdAt,value
2023-04-17T00:04:10.742Z,45.30
2023-04-17T00:09:13.941Z,43.00
2023-04-17T00:14:18.200Z,48.13
2023-04-17T00:19:20.896Z,46.60
2023-04-17T00:24:23.575Z,47.07
2023-04-17T00:29:27.647Z,48.67
2023-04-17T00:34:30.441Z,45.97
2023-04-17T00:39:35.268Z,47.23
2023-04-17T00:44:39.350Z,52.40
2023-04-17T00:49:42.231Z,47.40
2023-04-17T00:54:45.087Z,45.72
2023-04-17T00:59:49.538Z,46.45
2023-04-17T01:04:52.270Z,50.60
2023-04-17T01:09:55.332Z,49.37
2023-04-17T01:14:59.383Z,51.70
2023-04-17T01:20:06.219Z,54.25
2023-04-17T01:25:10.740Z,62.20
2023-04-17T01:30:14.598Z,53.50
2023-04-17T01:35:17.445Z,61.47
2023-04-17T01:40:21.660Z,53.78
2023-04-17T01:45:25.375Z,57.75
2023-04-17T01:50:28.674Z,58.33
2023-04-17T01:55:32.656Z,58.70
2023-04-17T02:00:37.289Z,58.03
2023-04-17T02:05:39.881Z,66.60
2023-04-17T02:10:44.474Z,64.57
2023-04-17T02:15:47.153Z,73.28
2023-04-17T02:20:51.817Z,65.93
2023-04-17T02:25:56.124Z,76.47
2023-04-17T02:30:58.836Z,84.75
2023-04-17T02:36:01.546Z,80.97
2023-04-17T02:41:06.352Z,78.90
2023-04-17T02:46:10.508Z,73.72
2023-04-17T02:51:13.280Z,78.43
2023-04-17T02:56:17.583Z,72.57
2023-04-17T03:01:21.544Z,74.88
2023-04-17T03:06:24.910Z,86.30
2023-04-17T03:11:29.332Z,83.22
2023-04-17T03:16:32.024Z,90.47
2023-04-17T03:21:34.883Z,84.13
2023-04-17T03:26:40.912Z,92.57
2023-04-17T03:31:43.555Z,90.35
2023-04-17T03:36:46.654Z,89.63
2023-04-17T03:41:50.758Z,89.07
2023-04-17T03:46:53.576Z,93.05
2023-04-17T03:51:57.468Z,91.65
2023-04-17T03:57:01.505Z,85.13
2023-04-17T04:02:04.331Z,84.13
2023-04-17T04:07:07.122Z,95.07
2023-04-17T04:12:11.571Z,98.27
2023-04-17T04:17:14.236Z,85.97
2023-04-17T04:22:18.558Z,84.07
2023-04-17T04:27:23.090Z,93.95
2023-04-17T04:32:27.948Z,90.07
2023-04-17T04:37:31.800Z,93.57
2023-04-17T04:42:35.816Z,90.53
2023-04-17T04:47:41.952Z,95.28
2023-04-17T04:52:44.705Z,88.97
2023-04-17T04:57:53.472Z,96.57
2023-04-17T05:02:56.407Z,86.13
2023-04-17T05:07:59.280Z,85.60
2023-04-17T05:13:04.388Z,85.93
2023-04-17T05:18:07.144Z,83.35
2023-04-17T05:23:11.056Z,82.67
2023-04-17T05:28:16.777Z,90.85
2023-04-17T05:33:19.890Z,88.90
2023-04-17T05:38:23.684Z,95.17
2023-04-17T05:43:27.699Z,87.40
2023-04-17T05:48:30.522Z,86.00
2023-04-17T05:53:33.255Z,84.35
2023-04-17T05:58:37.356Z,84.67
2023-04-17T06:03:40.154Z,85.43
2023-04-17T06:08:44.502Z,77.05
2023-04-17T06:13:48.817Z,81.43
2023-04-17T06:18:51.557Z,87.30
2023-04-17T06:23:54.217Z,85.57
2023-04-17T06:28:58.414Z,84.27
2023-04-17T06:34:01.140Z,90.68
2023-04-17T06:39:03.884Z,79.50
2023-04-17T06:44:08.177Z,81.50
2023-04-17T06:49:11.042Z,71.72
2023-04-17T06:54:14.084Z,80.53
2023-04-17T06:59:18.282Z,72.97
2023-04-17T07:04:21.736Z,68.85
2023-04-17T07:14:33.547Z,69.65
2023-04-17T07:19:36.252Z,73.40
2023-04-17T07:24:38.991Z,61.77
2023-04-17T07:29:44.234Z,64.57
2023-04-17T07:34:47.576Z,56.90
2023-04-17T07:44:55.227Z,59.03
2023-04-17T07:50:16.060Z,53.30
2023-04-17T07:55:18.809Z,57.80
2023-04-17T08:00:23.484Z,51.83
2023-04-17T08:05:26.325Z,64.18
2023-04-17T08:10:29.427Z,52.95
2023-04-17T08:15:33.589Z,48.33
2023-04-17T08:20:36.727Z,45.50
2023-04-17T08:25:39.362Z,44.58
2023-04-17T08:30:43.402Z,41.50
2023-04-17T08:35:46.588Z,39.05
2023-04-17T08:40:52.286Z,41.70
2023-04-17T08:45:56.905Z,37.20
2023-04-17T08:50:59.622Z,45.80
2023-04-17T08:56:06.866Z,42.30
2023-04-17T09:01:15.827Z,35.92
2023-04-17T09:06:19.222Z,36.22
2023-04-17T09:11:21.959Z,36.28
2023-04-17T09:16:26.064Z,42.28
2023-04-17T09:21:29.944Z,33.30
2023-04-17T09:26:34.146Z,36.83
2023-04-17T09:31:40.576Z,35.25
2023-04-17T09:36:44.253Z,31.80
2023-04-17T09:41:48.127Z,32.55
2023-04-17T09:46:54.056Z,32.13
2023-04-17T09:51:58.711Z,29.50
2023-04-17T09:57:03.873Z,28.85
2023-04-17T10:02:11.633Z,24.20
2023-04-17T10:07:16.671Z,22.30
2023-04-17T10:12:21.791Z,24.02
2023-04-17T10:17:28.606Z,22.80
2023-04-17T10:22:34.798Z,28.85
2023-04-17T10:27:45.426Z,22.77
2023-04-17T10:33:36.222Z,23.15
2023-04-17T10:38:38.767Z,22.30
2023-04-17T10:43:43.315Z,20.23
2023-04-17T10:48:52.586Z,19.92
2023-04-17T10:53:57.789Z,18.38
2023-04-17T10:59:02.446Z,20.55
2023-04-17T11:04:07.239Z,19.92
2023-04-17T11:09:12.262Z,21.05
2023-04-17T11:14:17.716Z,15.48
2023-04-17T11:19:23.576Z,16.17
2023-04-17T11:24:26.969Z,16.40
2023-04-17T11:29:32.093Z,15.95
2023-04-17T11:34:38.194Z,18.38
2023-04-17T11:39:44.150Z,15.73
2023-04-17T11:44:47.038Z,16.15
2023-04-17T11:49:52.576Z,16.70
2023-04-17T11:54:59.004Z,16.52
2023-04-17T12:00:27.506Z,13.48
2023-04-17T12:05:32.302Z,15.00
2023-04-17T12:10:39.815Z,13.73
2023-04-17T12:15:42.730Z,14.43
2023-04-17T12:20:47.556Z,14.50
2023-04-17T12:25:50.275Z,18.17
2023-04-17T12:36:18.303Z,17.70
2023-04-17T12:41:21.891Z,15.65
2023-04-17T12:46:24.808Z,13.80
2023-04-17T12:51:29.380Z,13.15
2023-04-17T12:56:32.035Z,14.90
2023-04-17T13:01:34.821Z,13.48
2023-04-17T13:11:42.888Z,15.43
2023-04-17T13:16:46.211Z,13.18
2023-04-17T13:21:51.756Z,11.88
2023-04-17T13:26:59.782Z,13.30
2023-04-17T13:32:02.553Z,12.98
2023-04-17T13:37:07.293Z,13.52
2023-04-17T13:42:10.401Z,11.60
2023-04-17T13:47:17.534Z,13.48
2023-04-17T13:52:25.876Z,9.60
2023-04-17T13:57:54.296Z,10.95
2023-04-17T14:03:00.211Z,10.27
2023-04-17T14:08:04.519Z,11.23
2023-04-17T14:13:07.484Z,11.60
2023-04-17T14:18:17.411Z,12.48
2023-04-17T14:23:29.871Z,11.00
2023-04-17T14:28:45.566Z,11.20
2023-04-17T14:33:58.728Z,11.57
2023-04-17T14:39:05.655Z,14.80
2023-04-17T14:44:08.970Z,12.10
2023-04-17T14:49:19.440Z,9.82
2023-04-17T14:54:28.374Z,17.90
2023-04-17T14:59:31.115Z,11.27
2023-04-17T15:04:37.128Z,15.10
2023-04-17T15:09:46.429Z,13.02
2023-04-17T15:14:51.013Z,14.57
2023-04-17T15:19:55.759Z,10.95
2023-04-17T15:24:59.860Z,11.45
2023-04-17T15:30:05.006Z,11.45
2023-04-17T15:35:08.354Z,10.27
2023-04-17T15:40:13.249Z,8.60
2023-04-17T15:45:21.174Z,7.78
2023-04-17T15:50:25.962Z,7.93
2023-04-17T15:55:30.188Z,10.13
2023-04-17T16:00:34.069Z,7.32
2023-04-17T16:05:36.875Z,8.93
2023-04-17T16:10:40.892Z,8.70
2023-04-17T16:15:43.655Z,8.68
2023-04-17T16:25:51.317Z,7.00
2023-04-17T16:30:54.046Z,11.10
2023-04-17T16:41:02.000Z,8.47
2023-04-17T16:46:14.362Z,9.88
2023-04-17T16:51:25.056Z,7.65
2023-04-17T16:56:29.069Z,8.00
2023-04-17T17:01:33.222Z,8.45
2023-04-17T17:06:39.105Z,7.22
2023-04-17T17:11:43.404Z,8.90
2023-04-17T17:16:50.090Z,7.32
2023-04-17T17:21:55.685Z,8.35
2023-04-17T17:26:59.681Z,8.80
2023-04-17T17:32:06.092Z,8.48
2023-04-17T17:37:09.160Z,7.60
2023-04-17T17:42:36.367Z,10.35
2023-04-17T17:47:39.924Z,8.25
2023-04-17T17:52:42.730Z,9.70
2023-04-17T17:57:49.701Z,8.93
2023-04-17T18:02:53.048Z,8.05
2023-04-17T18:07:55.911Z,10.65
2023-04-17T18:12:59.990Z,9.20
2023-04-17T18:18:03.359Z,9.65
2023-04-17T18:23:07.274Z,9.13
2023-04-17T18:28:14.081Z,10.57
2023-04-17T18:33:17.309Z,10.88
2023-04-17T18:43:27.479Z,7.07
2023-04-17T18:48:30.166Z,9.38
2023-04-17T18:53:33.671Z,10.18
2023-04-17T18:58:40.769Z,11.80
2023-04-17T19:03:43.539Z,11.05
2023-04-17T19:08:46.280Z,12.18
2023-04-17T19:13:50.454Z,14.87
2023-04-17T19:18:53.212Z,13.05
2023-04-17T19:23:56.307Z,13.00
2023-04-17T19:29:03.076Z,18.25
2023-04-17T19:34:06.967Z,15.27
2023-04-17T19:39:09.730Z,12.38
2023-04-17T19:44:14.342Z,10.93
2023-04-17T19:49:17.107Z,13.00
2023-04-17T19:54:19.967Z,12.63
2023-04-17T19:59:24.621Z,12.55
2023-04-17T20:04:27.560Z,10.30
2023-04-17T20:09:31.648Z,15.25
2023-04-17T20:14:36.349Z,13.68
2023-04-17T20:19:39.025Z,16.55
2023-04-17T20:24:41.768Z,16.47
2023-04-17T20:29:46.254Z,18.43
2023-04-17T20:34:49.169Z,16.55
2023-04-17T20:39:52.903Z,19.38
2023-04-17T20:44:57.193Z,19.70
2023-04-17T20:50:04.114Z,18.65
2023-04-17T20:55:10.224Z,15.05
2023-04-17T21:00:15.883Z,18.25
2023-04-17T21:05:19.292Z,19.15
2023-04-17T21:15:25.932Z,19.13
2023-04-17T21:20:28.778Z,19.90
2023-04-17T21:25:31.502Z,21.63
2023-04-17T21:30:37.063Z,18.37
2023-04-17T21:35:40.926Z,18.95
2023-04-17T21:45:51.792Z,18.75
2023-04-17T21:50:56.659Z,14.82
2023-04-17T21:55:59.496Z,15.57
2023-04-17T22:01:04.571Z,11.65
2023-04-17T22:06:07.811Z,14.70
2023-04-17T22:11:10.613Z,11.48
2023-04-17T22:16:14.636Z,10.43
2023-04-17T22:21:35.422Z,11.60
2023-04-17T22:26:38.091Z,10.77
2023-04-17T22:31:42.242Z,10.37
2023-04-17T22:36:44.896Z,11.45
2023-04-17T22:41:47.568Z,10.70
2023-04-17T22:46:51.792Z,12.50
2023-04-17T22:51:54.759Z,12.82
2023-04-17T22:56:57.625Z,12.10
2023-04-17T23:02:04.378Z,11.50
2023-04-17T23:07:11.608Z,12.00
2023-04-17T23:12:14.188Z,13.85
2023-04-17T23:17:19.605Z,12.50
2023-04-17T23:22:22.503Z,11.07
2023-04-17T23:27:25.885Z,12.88
2023-04-17T23:32:32.285Z,12.65
2023-04-17T23:37:35.799Z,13.82
2023-04-17T23:42:38.765Z,13.13
2023-04-17T23:47:44.421Z,12.32
2023-04-17T23:52:47.520Z,10.98
2023-04-17T23:58:11.462Z,11.30
